createdAt,value
2018-06-17T00:00:48.093Z,0.00
2018-06-17T00:01:48.094Z,0.00
2018-06-17T00:02:48.028Z,0.00
2018-06-17T00:03:47.991Z,0.00
2018-06-17T00:04:47.962Z,0.00
2018-06-17T00:05:47.913Z,0.00
2018-06-17T00:06:47.889Z,0.00
2018-06-17T00:07:47.861Z,0.00
2018-06-17T00:08:47.833Z,0.00
2018-06-17T00:09:47.743Z,0.00
2018-06-17T00:10:47.734Z,0.00
2018-06-17T00:11:47.703Z,0.00
2018-06-17T00:12:47.663Z,0.00
2018-06-17T00:13:47.638Z,0.00
2018-06-17T00:14:47.579Z,0.00
2018-06-17T00:15:47.529Z,0.00
2018-06-17T00:16:47.487Z,0.00
2018-06-17T00:17:47.486Z,0.00
2018-06-17T00:18:47.405Z,0.00
2018-06-17T00:19:47.404Z,0.00
2018-06-17T00:20:47.345Z,0.00
2018-06-17T00:21:47.295Z,0.00
2018-06-17T00:22:47.286Z,0.00
2018-06-17T00:23:47.218Z,0.00
2018-06-17T00:24:47.170Z,0.00
2018-06-17T00:25:47.157Z,0.00
2018-06-17T00:26:47.115Z,0.00
2018-06-17T00:27:47.104Z,0.00
2018-06-17T00:28:47.028Z,0.00
2018-06-17T00:29:46.990Z,0.00
2018-06-17T00:30:46.958Z,0.00
2018-06-17T00:31:46.908Z,0.00
2018-06-17T00:32:46.877Z,0.00
2018-06-17T00:33:46.875Z,0.00
2018-06-17T00:34:46.810Z,0.00
2018-06-17T00:35:46.785Z,0.00
2018-06-17T00:36:46.712Z,0.00
2018-06-17T00:37:46.701Z,0.00
2018-06-17T00:38:46.694Z,0.00
2018-06-17T00:39:46.606Z,0.00
2018-06-17T00:40:46.573Z,0.00
2018-06-17T00:41:46.543Z,0.00
2018-06-17T00:42:46.495Z,0.00
2018-06-17T00:43:46.443Z,0.00
2018-06-17T00:44:46.426Z,0.00
2018-06-17T00:45:46.371Z,0.00
2018-06-17T00:46:46.357Z,0.00
2018-06-17T00:47:46.295Z,0.00
2018-06-17T00:48:46.267Z,0.00
2018-06-17T00:49:46.236Z,0.00
2018-06-17T00:50:46.194Z,0.00
2018-06-17T00:51:46.156Z,0.00
2018-06-17T00:52:46.110Z,0.00
2018-06-17T00:53:46.067Z,0.00
2018-06-17T00:54:46.070Z,0.00
2018-06-17T00:55:45.981Z,0.00
2018-06-17T00:56:45.954Z,0.00
2018-06-17T00:57:45.917Z,0.00
2018-06-17T00:58:45.886Z,0.00
2018-06-17T00:59:45.862Z,0.00
2018-06-17T01:00:45.791Z,0.00
2018-06-17T01:01:45.743Z,0.00
2018-06-17T01:02:45.711Z,0.00
2018-06-17T01:03:45.688Z,0.00
2018-06-17T01:04:45.666Z,0.00
2018-06-17T01:05:45.605Z,0.00
2018-06-17T01:06:45.573Z,0.00
2018-06-17T01:07:45.513Z,0.00
2018-06-17T01:08:45.494Z,0.00
2018-06-17T01:09:45.451Z,0.00
2018-06-17T01:10:45.430Z,0.00
2018-06-17T01:11:45.376Z,0.00
2018-06-17T01:12:45.337Z,0.00
2018-06-17T01:13:45.296Z,0.00
2018-06-17T01:14:45.307Z,0.00
2018-06-17T01:15:45.205Z,0.00
2018-06-17T01:16:45.165Z,0.00
2018-06-17T01:17:45.149Z,0.00
2018-06-17T01:18:45.109Z,0.00
2018-06-17T01:19:45.063Z,0.00
2018-06-17T01:20:45.039Z,0.00
2018-06-17T01:21:44.964Z,0.00
2018-06-17T01:22:44.944Z,0.00
2018-06-17T01:23:44.904Z,0.00
2018-06-17T01:24:44.874Z,0.00
2018-06-17T01:25:44.842Z,0.00
2018-06-17T01:26:44.790Z,0.00
2018-06-17T01:27:44.744Z,0.00
2018-06-17T01:28:44.713Z,0.00
2018-06-17T01:29:44.670Z,0.00
2018-06-17T01:30:44.663Z,0.00
2018-06-17T01:31:44.592Z,0.00
2018-06-17T01:32:44.555Z,0.00
2018-06-17T01:33:44.501Z,0.00
2018-06-17T01:34:44.474Z,0.00
2018-06-17T01:35:44.441Z,0.00
2018-06-17T01:36:44.420Z,0.00
2018-06-17T01:37:44.360Z,0.00
2018-06-17T01:38:44.319Z,0.00
2018-06-17T01:39:44.273Z,0.00
2018-06-17T01:40:44.256Z,0.00
2018-06-17T01:41:44.244Z,0.00
2018-06-17T01:42:44.155Z,0.00
2018-06-17T01:43:44.120Z,0.00
2018-06-17T01:44:44.087Z,0.00
2018-06-17T01:45:44.052Z,0.00
2018-06-17T01:46:44.028Z,0.00
2018-06-17T01:47:43.976Z,0.00
2018-06-17T01:48:43.927Z,0.00
2018-06-17T01:49:43.894Z,0.00
2018-06-17T01:50:43.893Z,0.00
2018-06-17T01:51:43.839Z,0.00
2018-06-17T01:52:43.790Z,0.00
2018-06-17T01:53:43.723Z,0.00
2018-06-17T01:54:43.681Z,0.00
2018-06-17T01:55:43.657Z,0.00
2018-06-17T01:56:43.617Z,0.00
2018-06-17T01:57:43.592Z,0.00
2018-06-17T01:58:43.548Z,0.00
2018-06-17T01:59:43.477Z,0.00
2018-06-17T02:00:43.465Z,0.00
2018-06-17T02:01:43.421Z,0.00
2018-06-17T02:02:43.411Z,0.00
2018-06-17T02:03:43.356Z,0.00
2018-06-17T02:04:43.307Z,0.00
2018-06-17T02:05:43.245Z,0.00
2018-06-17T02:06:43.208Z,0.00
2018-06-17T02:07:43.218Z,0.00
2018-06-17T02:08:43.139Z,0.00
2018-06-17T02:09:43.104Z,0.00
2018-06-17T02:10:43.059Z,0.00
2018-06-17T02:11:43.024Z,0.00
2018-06-17T02:12:42.995Z,0.00
2018-06-17T02:13:42.966Z,0.00
2018-06-17T02:14:42.907Z,0.00
2018-06-17T02:15:42.869Z,0.00
2018-06-17T02:16:42.838Z,0.00
2018-06-17T02:17:42.780Z,0.00
2018-06-17T02:18:42.780Z,0.00
2018-06-17T02:19:42.733Z,0.00
2018-06-17T02:20:42.673Z,0.00
2018-06-17T02:21:42.630Z,0.00
2018-06-17T02:22:42.622Z,0.00
2018-06-17T02:23:52.534Z,0.00
2018-06-17T02:24:42.512Z,0.00
2018-06-17T02:25:42.466Z,0.00
2018-06-17T02:26:42.432Z,0.00
2018-06-17T02:27:42.386Z,0.00
2018-06-17T02:28:42.368Z,0.00
2018-06-17T02:29:42.315Z,0.00
2018-06-17T02:30:42.298Z,0.00
2018-06-17T02:31:42.257Z,0.00
2018-06-17T02:32:42.201Z,0.00
2018-06-17T02:33:42.193Z,0.00
2018-06-17T02:34:42.133Z,0.00
2018-06-17T02:35:42.090Z,0.00
2018-06-17T02:36:42.039Z,0.00
2018-06-17T02:37:42.003Z,4.00
2018-06-17T02:38:41.970Z,4.00
2018-06-17T02:39:41.964Z,4.00
2018-06-17T02:40:41.911Z,4.00
2018-06-17T02:41:41.844Z,0.00
2018-06-17T02:42:41.800Z,0.00
2018-06-17T02:43:41.784Z,4.00
2018-06-17T02:44:41.783Z,4.00
2018-06-17T02:45:41.723Z,4.00
2018-06-17T02:46:41.687Z,4.00
2018-06-17T02:47:52.056Z,4.00
2018-06-17T02:48:41.563Z,4.00
2018-06-17T02:49:41.526Z,8.00
2018-06-17T02:50:41.519Z,8.00
2018-06-17T02:51:41.462Z,12.00
2018-06-17T02:52:41.419Z,12.00
2018-06-17T02:53:41.374Z,12.00
2018-06-17T02:54:41.337Z,12.00
2018-06-17T02:55:41.304Z,12.00
2018-06-17T02:56:41.289Z,16.00
2018-06-17T02:57:41.222Z,16.00
2018-06-17T02:58:41.181Z,16.00
2018-06-17T02:59:41.151Z,20.00
2018-06-17T03:00:41.111Z,28.00
2018-06-17T03:01:41.106Z,32.00
2018-06-17T03:02:41.068Z,36.00
2018-06-17T03:03:40.995Z,40.00
2018-06-17T03:04:40.960Z,44.00
2018-06-17T03:05:40.922Z,48.00
2018-06-17T03:06:40.908Z,52.00
2018-06-17T03:07:40.847Z,52.00
2018-06-17T03:08:40.788Z,60.00
2018-06-17T03:09:40.762Z,72.00
2018-06-17T03:10:40.723Z,84.00
2018-06-17T03:11:40.673Z,96.00
2018-06-17T03:12:40.657Z,108.00
2018-06-17T03:13:40.608Z,116.00
2018-06-17T03:14:40.567Z,132.00
2018-06-17T03:15:40.520Z,144.00
2018-06-17T03:16:40.489Z,156.00
2018-06-17T03:17:40.464Z,164.00
2018-06-17T03:18:40.428Z,164.00
2018-06-17T03:19:40.372Z,164.00
2018-06-17T03:20:40.338Z,160.00
2018-06-17T03:21:40.296Z,164.00
2018-06-17T03:22:40.295Z,168.00
2018-06-17T03:23:40.224Z,176.00
2018-06-17T03:24:40.238Z,192.00
2018-06-17T03:25:40.142Z,208.00
2018-06-17T03:26:40.099Z,228.00
2018-06-17T03:27:40.076Z,244.00
2018-06-17T03:28:40.050Z,244.00
2018-06-17T03:29:39.997Z,244.00
2018-06-17T03:30:39.941Z,260.00
2018-06-17T03:31:39.922Z,276.00
2018-06-17T03:32:39.890Z,288.00
2018-06-17T03:33:39.873Z,304.00
2018-06-17T03:34:39.801Z,332.00
2018-06-17T03:35:39.783Z,360.00
2018-06-17T03:36:39.742Z,408.00
2018-06-17T03:37:39.698Z,456.00
2018-06-17T03:38:39.641Z,500.00
2018-06-17T03:39:39.645Z,548.00
2018-06-17T03:40:39.558Z,596.00
2018-06-17T03:41:39.533Z,644.00
2018-06-17T03:42:39.487Z,684.00
2018-06-17T03:43:39.467Z,720.00
2018-06-17T03:44:39.432Z,736.00
2018-06-17T03:45:39.387Z,732.00
2018-06-17T03:46:39.353Z,756.00
2018-06-17T03:47:39.292Z,776.00
2018-06-17T03:48:39.271Z,796.00
2018-06-17T03:49:39.245Z,820.00
2018-06-17T03:50:39.179Z,836.00
2018-06-17T03:51:39.127Z,840.00
2018-06-17T03:52:39.103Z,836.00
2018-06-17T03:53:39.078Z,828.00
2018-06-17T03:54:39.091Z,828.00
2018-06-17T03:55:39.000Z,840.00
2018-06-17T03:56:38.962Z,856.00
2018-06-17T03:57:38.922Z,880.00
2018-06-17T03:58:50.093Z,916.00
2018-06-17T03:59:38.841Z,968.00
2018-06-17T04:00:38.794Z,1016.00
2018-06-17T04:01:38.760Z,1080.00
2018-06-17T04:02:38.712Z,1140.00
2018-06-17T04:03:38.676Z,1220.00
2018-06-17T04:04:38.659Z,1312.00
2018-06-17T04:05:38.609Z,1376.00
2018-06-17T04:06:38.569Z,1400.00
2018-06-17T04:07:38.521Z,1448.00
2018-06-17T04:08:38.473Z,1516.00
2018-06-17T04:09:38.448Z,1592.00
2018-06-17T04:10:38.432Z,1668.00
2018-06-17T04:11:38.372Z,1732.00
2018-06-17T04:12:38.328Z,1780.00
2018-06-17T04:13:38.284Z,1824.00
2018-06-17T04:14:38.256Z,1892.00
2018-06-17T04:15:38.256Z,1980.00
2018-06-17T04:16:38.176Z,2008.00
2018-06-17T04:17:38.164Z,1996.00
2018-06-17T04:18:38.128Z,1936.00
2018-06-17T04:19:38.065Z,1884.00
2018-06-17T04:20:38.074Z,1820.00
2018-06-17T04:21:37.978Z,1768.00
2018-06-17T04:22:48.133Z,1732.00
2018-06-17T04:23:37.904Z,1752.00
2018-06-17T04:24:37.876Z,1752.00
2018-06-17T04:25:37.901Z,1764.00
2018-06-17T04:26:37.823Z,1772.00
2018-06-17T04:27:37.761Z,1800.00
2018-06-17T04:28:37.715Z,1888.00
2018-06-17T04:29:37.676Z,2000.00
2018-06-17T04:30:37.638Z,2112.00
2018-06-17T04:31:37.615Z,2232.00
2018-06-17T04:32:37.569Z,2332.00
2018-06-17T04:33:37.542Z,2468.00
2018-06-17T04:34:37.503Z,2604.00
2018-06-17T04:35:37.456Z,2752.00
2018-06-17T04:36:37.451Z,2844.00
2018-06-17T04:37:37.393Z,2860.00
2018-06-17T04:38:37.328Z,2868.00
2018-06-17T04:39:37.325Z,3040.00
2018-06-17T04:40:37.265Z,3204.00
2018-06-17T04:41:37.218Z,3392.00
2018-06-17T04:42:37.213Z,3396.00
2018-06-17T04:43:37.157Z,3508.00
2018-06-17T04:44:37.106Z,3612.00
2018-06-17T04:45:37.070Z,3752.00
2018-06-17T04:46:37.044Z,3908.00
2018-06-17T04:47:37.027Z,4056.00
2018-06-17T04:48:36.980Z,4188.00
2018-06-17T04:49:36.907Z,4520.00
2018-06-17T04:50:36.877Z,4724.00
2018-06-17T04:51:36.869Z,4936.00
2018-06-17T04:52:36.830Z,5296.00
2018-06-17T04:53:36.774Z,5516.00
2018-06-17T04:54:36.730Z,5480.00
2018-06-17T04:55:36.693Z,5320.00
2018-06-17T04:56:36.680Z,5232.00
2018-06-17T04:57:36.639Z,5392.00
2018-06-17T04:58:36.572Z,5804.00
2018-06-17T04:59:36.545Z,6028.00
2018-06-17T05:00:36.525Z,6188.00
2018-06-17T05:01:36.461Z,6452.00
2018-06-17T05:02:36.430Z,6756.00
2018-06-17T05:03:36.417Z,6880.00
2018-06-17T05:04:36.357Z,6596.00
2018-06-17T05:05:36.310Z,6648.00
2018-06-17T05:06:36.278Z,7064.00
2018-06-17T05:07:36.253Z,8544.00
2018-06-17T05:08:36.244Z,9176.00
2018-06-17T05:09:36.171Z,11884.00
2018-06-17T05:10:36.117Z,20416.00
2018-06-17T05:11:46.161Z,20960.00
2018-06-17T05:12:36.041Z,16960.00
2018-06-17T05:13:36.038Z,20800.00
2018-06-17T05:14:35.966Z,20352.00
2018-06-17T05:15:35.950Z,20256.00
2018-06-17T05:16:35.903Z,21120.00
2018-06-17T05:17:35.857Z,18848.00
2018-06-17T05:18:35.828Z,15072.00
2018-06-17T05:19:35.813Z,19104.00
2018-06-17T05:20:35.748Z,13976.00
2018-06-17T05:21:35.712Z,22528.00
2018-06-17T05:22:35.677Z,18848.00
2018-06-17T05:23:35.655Z,22976.00
2018-06-17T05:24:35.643Z,24736.00
2018-06-17T05:25:35.585Z,27232.00
2018-06-17T05:26:35.536Z,29248.00
2018-06-17T05:27:35.515Z,29824.00
2018-06-17T05:28:35.477Z,29696.00
2018-06-17T05:29:35.444Z,30304.00
2018-06-17T05:30:35.426Z,24640.00
2018-06-17T05:31:35.368Z,20672.00
2018-06-17T05:32:35.334Z,28224.00
2018-06-17T05:33:35.308Z,20704.00
2018-06-17T05:34:35.255Z,17088.00
2018-06-17T05:35:35.261Z,16480.00
2018-06-17T05:36:35.208Z,17344.00
2018-06-17T05:37:35.160Z,18848.00
2018-06-17T05:38:35.135Z,19168.00
2018-06-17T05:39:35.106Z,20928.00
2018-06-17T05:40:35.066Z,12888.00
2018-06-17T05:41:35.011Z,11996.00
2018-06-17T05:42:34.988Z,20448.00
2018-06-17T05:43:34.973Z,24608.00
2018-06-17T05:44:34.940Z,26240.00
2018-06-17T05:45:34.906Z,16192.00
2018-06-17T05:46:34.847Z,15344.00
2018-06-17T05:47:34.892Z,16064.00
2018-06-17T05:48:34.815Z,16320.00
2018-06-17T05:49:34.761Z,20640.00
2018-06-17T05:50:34.724Z,18720.00
2018-06-17T05:51:34.727Z,25824.00
2018-06-17T05:52:34.658Z,23680.00
2018-06-17T05:53:34.630Z,17856.00
2018-06-17T05:54:34.584Z,25600.00
2018-06-17T05:55:34.581Z,19488.00
2018-06-17T05:56:34.548Z,16352.00
2018-06-17T05:57:34.468Z,15776.00
2018-06-17T05:58:46.714Z,16416.00
2018-06-17T05:59:34.417Z,18976.00
2018-06-17T06:00:34.375Z,25696.00
2018-06-17T06:01:34.361Z,19584.00
2018-06-17T06:02:34.301Z,17920.00
2018-06-17T06:03:34.286Z,23648.00
2018-06-17T06:04:34.242Z,26752.00
2018-06-17T06:05:34.208Z,23968.00
2018-06-17T06:06:34.184Z,26080.00
2018-06-17T06:07:34.163Z,25376.00
2018-06-17T06:08:34.097Z,26912.00
2018-06-17T06:09:34.063Z,25952.00
2018-06-17T06:10:34.030Z,26272.00
2018-06-17T06:11:33.993Z,26272.00
2018-06-17T06:12:33.985Z,19008.00
2018-06-17T06:13:33.931Z,19872.00
2018-06-17T06:14:33.937Z,20896.00
2018-06-17T06:15:33.862Z,21952.00
2018-06-17T06:16:33.836Z,22464.00
2018-06-17T06:17:33.835Z,18272.00
2018-06-17T06:18:33.782Z,19872.00
2018-06-17T06:19:33.727Z,21856.00
2018-06-17T06:20:33.715Z,22752.00
2018-06-17T06:21:33.670Z,21632.00
2018-06-17T06:22:33.658Z,17216.00
2018-06-17T06:23:33.617Z,15272.00
2018-06-17T06:24:33.546Z,17888.00
2018-06-17T06:25:33.549Z,16896.00
2018-06-17T06:26:33.498Z,18720.00
2018-06-17T06:27:33.461Z,17952.00
2018-06-17T06:28:33.466Z,17952.00
2018-06-17T06:29:33.380Z,19488.00
2018-06-17T06:30:33.353Z,17952.00
2018-06-17T06:31:33.322Z,18528.00
2018-06-17T06:32:33.289Z,16384.00
2018-06-17T06:33:33.283Z,14176.00
2018-06-17T06:34:33.207Z,14816.00
2018-06-17T06:35:33.199Z,21088.00
2018-06-17T06:36:33.152Z,22400.00
2018-06-17T06:37:33.123Z,22048.00
2018-06-17T06:38:33.095Z,25728.00
2018-06-17T06:39:33.131Z,29344.00
2018-06-17T06:40:33.005Z,26944.00
2018-06-17T06:41:32.987Z,36096.00
2018-06-17T06:42:32.956Z,42432.00
2018-06-17T06:43:32.905Z,31232.00
2018-06-17T06:44:32.923Z,23136.00
2018-06-17T06:45:32.868Z,22848.00
2018-06-17T06:46:43.304Z,21152.00
2018-06-17T06:47:32.778Z,20800.00
2018-06-17T06:48:32.736Z,21088.00
2018-06-17T06:49:32.785Z,28256.00
2018-06-17T06:50:32.691Z,30144.00
2018-06-17T06:51:32.630Z,28960.00
2018-06-17T06:52:32.604Z,26784.00
2018-06-17T06:53:32.570Z,28800.00
2018-06-17T06:54:32.555Z,28544.00
2018-06-17T06:55:32.518Z,29536.00
2018-06-17T06:56:32.470Z,26464.00
2018-06-17T06:57:32.478Z,28128.00
2018-06-17T06:58:32.414Z,27296.00
2018-06-17T06:59:32.356Z,27840.00
2018-06-17T07:00:32.359Z,27776.00
2018-06-17T07:01:32.305Z,27744.00
2018-06-17T07:02:32.284Z,28032.00
2018-06-17T07:03:32.233Z,28704.00
2018-06-17T07:04:32.215Z,31584.00
2018-06-17T07:05:32.189Z,31296.00
2018-06-17T07:06:32.138Z,33376.00
2018-06-17T07:07:32.104Z,32480.00
2018-06-17T07:08:32.083Z,35232.00
2018-06-17T07:09:32.058Z,20832.00
2018-06-17T07:10:32.059Z,20256.00
2018-06-17T07:11:31.973Z,19904.00
2018-06-17T07:12:31.925Z,19680.00
2018-06-17T07:13:31.912Z,18112.00
2018-06-17T07:14:31.862Z,16704.00
2018-06-17T07:15:31.856Z,16672.00
2018-06-17T07:16:31.832Z,17280.00
2018-06-17T07:17:31.804Z,15872.00
2018-06-17T07:18:31.720Z,12888.00
2018-06-17T07:19:31.729Z,11276.00
2018-06-17T07:20:31.717Z,10660.00
2018-06-17T07:21:31.657Z,10316.00
2018-06-17T07:22:31.599Z,10076.00
2018-06-17T07:23:31.580Z,9916.00
2018-06-17T07:24:31.556Z,9744.00
2018-06-17T07:25:31.501Z,10232.00
2018-06-17T07:26:31.486Z,10064.00
2018-06-17T07:27:31.452Z,11284.00
2018-06-17T07:28:31.418Z,11568.00
2018-06-17T07:29:31.353Z,10312.00
2018-06-17T07:30:31.335Z,10376.00
2018-06-17T07:31:31.325Z,11212.00
2018-06-17T07:32:31.247Z,10792.00
2018-06-17T07:33:42.321Z,12584.00
2018-06-17T07:34:31.187Z,15476.00
2018-06-17T07:35:31.181Z,15932.00
2018-06-17T07:36:31.137Z,17248.00
2018-06-17T07:37:31.120Z,17440.00
2018-06-17T07:38:31.041Z,18016.00
2018-06-17T07:39:31.014Z,15816.00
2018-06-17T07:40:30.990Z,14256.00
2018-06-17T07:41:30.980Z,13024.00
2018-06-17T07:42:30.921Z,12484.00
2018-06-17T07:43:30.876Z,12832.00
2018-06-17T07:44:30.845Z,12216.00
2018-06-17T07:45:30.803Z,12312.00
2018-06-17T07:46:30.773Z,12956.00
2018-06-17T07:47:30.740Z,14028.00
2018-06-17T07:48:30.704Z,15796.00
2018-06-17T07:49:30.670Z,18624.00
2018-06-17T07:50:30.640Z,18720.00
2018-06-17T07:51:30.591Z,19360.00
2018-06-17T07:52:30.624Z,19424.00
2018-06-17T07:53:30.515Z,20064.00
2018-06-17T07:54:30.502Z,19872.00
2018-06-17T07:55:30.476Z,18144.00
2018-06-17T07:56:30.428Z,18880.00
2018-06-17T07:57:40.506Z,17344.00
2018-06-17T07:58:30.351Z,17152.00
2018-06-17T07:59:30.327Z,16672.00
2018-06-17T08:00:30.284Z,17216.00
2018-06-17T08:01:30.233Z,17728.00
2018-06-17T08:03:30.196Z,18112.00
2018-06-17T08:04:30.837Z,17984.00
2018-06-17T08:05:30.095Z,18912.00
2018-06-17T08:06:30.059Z,19968.00
2018-06-17T08:07:30.034Z,21728.00
2018-06-17T08:08:30.041Z,24256.00
2018-06-17T08:09:29.972Z,25440.00
2018-06-17T08:10:29.942Z,27744.00
2018-06-17T08:11:29.928Z,33344.00
2018-06-17T08:12:29.855Z,30912.00
2018-06-17T08:13:29.847Z,26272.00
2018-06-17T08:14:29.806Z,27776.00
2018-06-17T08:15:29.780Z,24800.00
2018-06-17T08:16:29.729Z,21696.00
2018-06-17T08:17:29.683Z,21536.00
2018-06-17T08:18:29.685Z,19680.00
2018-06-17T08:19:29.627Z,18240.00
2018-06-17T08:20:29.585Z,17248.00
2018-06-17T08:21:39.869Z,18112.00
2018-06-17T08:22:29.589Z,20608.00
2018-06-17T08:23:29.476Z,20448.00
2018-06-17T08:24:29.790Z,18080.00
2018-06-17T08:25:29.413Z,16736.00
2018-06-17T08:26:29.381Z,15268.00
2018-06-17T08:27:29.341Z,14204.00
2018-06-17T08:28:29.317Z,14880.00
2018-06-17T08:29:29.287Z,16352.00
2018-06-17T08:30:29.301Z,17312.00
2018-06-17T08:31:29.212Z,18944.00
2018-06-17T08:32:29.177Z,21344.00
2018-06-17T08:33:29.138Z,23488.00
2018-06-17T08:34:29.127Z,24704.00
2018-06-17T08:35:29.074Z,27968.00
2018-06-17T08:36:29.019Z,39488.00
2018-06-17T08:37:29.013Z,40448.00
2018-06-17T08:38:28.976Z,37536.00
2018-06-17T08:39:28.940Z,38176.00
2018-06-17T08:40:28.933Z,38752.00
2018-06-17T08:41:28.871Z,40480.00
2018-06-17T08:42:28.828Z,38976.00
2018-06-17T08:43:28.817Z,34784.00
2018-06-17T08:44:28.754Z,31008.00
2018-06-17T08:45:28.765Z,28480.00
2018-06-17T08:46:28.723Z,27392.00
2018-06-17T08:47:28.662Z,27040.00
2018-06-17T08:48:28.631Z,26624.00
2018-06-17T08:49:28.609Z,27136.00
2018-06-17T08:50:28.597Z,27392.00
2018-06-17T08:51:28.561Z,28064.00
2018-06-17T08:52:28.547Z,28736.00
2018-06-17T08:53:28.448Z,28320.00
2018-06-17T08:54:28.426Z,28192.00
2018-06-17T08:55:28.434Z,27264.00
2018-06-17T08:56:28.375Z,29248.00
2018-06-17T08:57:28.357Z,26080.00
2018-06-17T08:58:28.296Z,26208.00
2018-06-17T08:59:28.297Z,25472.00
2018-06-17T09:00:28.228Z,24448.00
2018-06-17T09:01:28.227Z,24416.00
2018-06-17T09:02:28.158Z,24832.00
2018-06-17T09:03:28.126Z,25280.00
2018-06-17T09:04:28.135Z,26176.00
2018-06-17T09:05:28.075Z,26080.00
2018-06-17T09:06:28.059Z,23232.00
2018-06-17T09:07:27.993Z,21312.00
2018-06-17T09:08:27.962Z,16992.00
2018-06-17T09:09:27.932Z,14332.00
2018-06-17T09:10:27.907Z,15404.00
2018-06-17T09:11:27.883Z,18240.00
2018-06-17T09:12:27.879Z,18272.00
2018-06-17T09:13:27.815Z,18976.00
2018-06-17T09:14:27.769Z,22688.00
2018-06-17T09:15:27.734Z,25152.00
2018-06-17T09:16:27.732Z,21856.00
2018-06-17T09:17:27.661Z,21632.00
2018-06-17T09:18:27.629Z,25088.00
2018-06-17T09:19:27.606Z,20064.00
2018-06-17T09:20:27.554Z,20704.00
2018-06-17T09:21:27.560Z,26112.00
2018-06-17T09:22:27.491Z,20064.00
2018-06-17T09:23:27.459Z,20896.00
2018-06-17T09:24:27.417Z,23392.00
2018-06-17T09:25:27.387Z,26880.00
2018-06-17T09:26:27.353Z,24544.00
2018-06-17T09:27:27.396Z,21344.00
2018-06-17T09:28:27.293Z,21024.00
2018-06-17T09:29:27.248Z,19744.00
2018-06-17T09:30:27.227Z,18880.00
2018-06-17T09:31:27.193Z,18560.00
2018-06-17T09:32:27.186Z,18976.00
2018-06-17T09:33:27.141Z,21824.00
2018-06-17T09:34:27.104Z,28384.00
2018-06-17T09:35:27.043Z,23776.00
2018-06-17T09:36:27.033Z,19264.00
2018-06-17T09:37:26.984Z,16704.00
2018-06-17T09:38:26.977Z,18176.00
2018-06-17T09:39:26.941Z,22112.00
2018-06-17T09:40:26.913Z,24224.00
2018-06-17T09:41:26.864Z,28576.00
2018-06-17T09:42:26.832Z,26464.00
2018-06-17T09:43:26.808Z,28736.00
2018-06-17T09:44:26.823Z,24672.00
2018-06-17T09:45:26.704Z,23520.00
2018-06-17T09:46:26.691Z,28800.00
2018-06-17T09:47:26.658Z,24960.00
2018-06-17T09:48:26.644Z,22208.00
2018-06-17T09:49:26.584Z,20672.00
2018-06-17T09:50:26.536Z,20736.00
2018-06-17T09:51:26.519Z,20768.00
2018-06-17T09:52:26.488Z,17472.00
2018-06-17T09:53:26.473Z,16576.00
2018-06-17T09:54:26.423Z,16160.00
2018-06-17T09:55:26.402Z,14036.00
2018-06-17T09:56:26.344Z,12568.00
2018-06-17T09:57:37.139Z,9932.00
2018-06-17T09:58:26.327Z,9420.00
2018-06-17T09:59:26.243Z,10396.00
2018-06-17T10:00:26.207Z,12372.00
2018-06-17T10:01:26.208Z,12868.00
2018-06-17T10:02:26.161Z,12424.00
2018-06-17T10:03:26.165Z,12048.00
2018-06-17T10:04:26.085Z,11860.00
2018-06-17T10:05:26.032Z,11032.00
2018-06-17T10:06:26.012Z,12068.00
2018-06-17T10:07:25.992Z,13200.00
2018-06-17T10:08:25.966Z,12704.00
2018-06-17T10:09:25.923Z,12812.00
2018-06-17T10:10:25.915Z,13572.00
2018-06-17T10:11:25.823Z,19488.00
2018-06-17T10:12:25.818Z,16576.00
2018-06-17T10:13:25.759Z,13788.00
2018-06-17T10:14:25.752Z,13092.00
2018-06-17T10:15:25.698Z,12080.00
2018-06-17T10:16:25.665Z,9856.00
2018-06-17T10:17:25.630Z,9444.00
2018-06-17T10:18:25.590Z,13496.00
2018-06-17T10:19:25.596Z,15144.00
2018-06-17T10:20:25.512Z,13952.00
2018-06-17T10:21:37.315Z,13408.00
2018-06-17T10:22:25.473Z,27328.00
2018-06-17T10:23:25.414Z,27648.00
2018-06-17T10:24:25.389Z,26976.00
2018-06-17T10:25:25.349Z,25792.00
2018-06-17T10:26:25.327Z,41728.00
2018-06-17T10:27:25.281Z,44256.00
2018-06-17T10:28:25.249Z,34816.00
2018-06-17T10:29:25.289Z,43520.00
2018-06-17T10:30:25.159Z,37952.00
2018-06-17T10:31:25.154Z,39648.00
2018-06-17T10:32:25.103Z,42112.00
2018-06-17T10:33:25.102Z,38464.00
2018-06-17T10:34:25.074Z,36224.00
2018-06-17T10:35:25.054Z,35296.00
2018-06-17T10:36:24.973Z,38432.00
2018-06-17T10:37:24.945Z,35744.00
2018-06-17T10:38:24.909Z,34720.00
2018-06-17T10:39:24.909Z,33440.00
2018-06-17T10:40:24.849Z,32512.00
2018-06-17T10:41:24.799Z,27712.00
2018-06-17T10:42:24.762Z,22208.00
2018-06-17T10:43:24.747Z,17440.00
2018-06-17T10:44:24.736Z,13780.00
2018-06-17T10:45:24.700Z,13340.00
2018-06-17T10:46:24.669Z,13640.00
2018-06-17T10:47:24.607Z,13540.00
2018-06-17T10:48:24.600Z,12480.00
2018-06-17T10:49:24.556Z,15208.00
2018-06-17T10:50:24.543Z,18784.00
2018-06-17T10:51:24.492Z,18592.00
2018-06-17T10:52:24.438Z,18112.00
2018-06-17T10:53:24.400Z,16480.00
2018-06-17T10:54:24.399Z,15080.00
2018-06-17T10:55:24.367Z,12620.00
2018-06-17T10:56:24.322Z,11152.00
2018-06-17T10:57:24.293Z,11140.00
2018-06-17T10:58:24.261Z,12936.00
2018-06-17T10:59:24.202Z,18624.00
2018-06-17T11:00:24.170Z,23808.00
2018-06-17T11:01:24.143Z,27264.00
2018-06-17T11:02:24.105Z,28416.00
2018-06-17T11:03:24.081Z,27424.00
2018-06-17T11:04:24.026Z,24544.00
2018-06-17T11:05:24.025Z,24992.00
2018-06-17T11:06:23.993Z,30144.00
2018-06-17T11:07:23.914Z,40128.00
2018-06-17T11:08:23.908Z,44512.00
2018-06-17T11:09:23.858Z,41920.00
2018-06-17T11:10:23.838Z,37376.00
2018-06-17T11:11:23.860Z,34816.00
2018-06-17T11:12:23.769Z,31264.00
2018-06-17T11:13:23.724Z,28224.00
2018-06-17T11:14:23.693Z,26496.00
2018-06-17T11:15:23.650Z,26560.00
2018-06-17T11:16:23.657Z,27872.00
2018-06-17T11:17:23.603Z,31264.00
2018-06-17T11:18:23.564Z,32736.00
2018-06-17T11:19:23.577Z,31968.00
2018-06-17T11:20:23.493Z,29664.00
2018-06-17T11:21:23.457Z,27392.00
2018-06-17T11:22:23.450Z,24256.00
2018-06-17T11:23:23.396Z,21856.00
2018-06-17T11:24:23.374Z,19616.00
2018-06-17T11:25:23.318Z,17696.00
2018-06-17T11:26:23.289Z,13952.00
2018-06-17T11:27:23.294Z,12828.00
2018-06-17T11:28:23.232Z,12212.00
2018-06-17T11:29:23.234Z,11724.00
2018-06-17T11:30:23.159Z,10736.00
2018-06-17T11:31:23.158Z,13472.00
2018-06-17T11:32:23.136Z,20928.00
2018-06-17T11:33:34.656Z,25824.00
2018-06-17T11:34:23.066Z,26112.00
2018-06-17T11:35:22.996Z,26400.00
2018-06-17T11:36:22.951Z,25728.00
2018-06-17T11:37:22.932Z,27904.00
2018-06-17T11:38:22.910Z,27104.00
2018-06-17T11:39:22.854Z,25536.00
2018-06-17T11:40:22.832Z,24576.00
2018-06-17T11:41:22.827Z,23360.00
2018-06-17T11:42:22.750Z,22112.00
2018-06-17T11:43:22.745Z,21440.00
2018-06-17T11:44:22.690Z,20384.00
2018-06-17T11:45:22.644Z,18944.00
2018-06-17T11:46:22.606Z,18912.00
2018-06-17T11:47:22.628Z,19360.00
2018-06-17T11:48:22.581Z,19904.00
2018-06-17T11:49:22.574Z,19680.00
2018-06-17T11:50:22.483Z,19456.00
2018-06-17T11:51:22.483Z,19456.00
2018-06-17T11:52:22.417Z,19296.00
2018-06-17T11:53:22.424Z,19072.00
2018-06-17T11:54:22.358Z,19136.00
2018-06-17T11:55:22.325Z,18624.00
2018-06-17T11:56:22.296Z,18144.00
2018-06-17T11:57:22.261Z,17856.00
2018-06-17T11:58:22.226Z,17152.00
2018-06-17T11:59:22.210Z,15808.00
2018-06-17T12:00:22.155Z,13980.00
2018-06-17T12:01:22.142Z,14264.00
2018-06-17T12:02:22.079Z,14380.00
2018-06-17T12:03:22.074Z,13120.00
2018-06-17T12:04:21.999Z,12192.00
2018-06-17T12:05:21.977Z,12272.00
2018-06-17T12:06:21.937Z,12216.00
2018-06-17T12:07:21.899Z,11800.00
2018-06-17T12:08:21.885Z,11848.00
2018-06-17T12:09:21.865Z,12172.00
2018-06-17T12:10:21.807Z,12264.00
2018-06-17T12:11:21.788Z,12540.00
2018-06-17T12:12:21.752Z,13792.00